Time;durP1;ratioP1;P1;durP2;ratioP2;P2;SDS_P1;SDS_P2;PMS_P1;PMS_P2;Temp;Humidity;BMP_temperature;BMP_pressure;BME280_temperature;BME280_humidity;BME280_pressure;Samples;Min_cycle;Max_cycle;Signal;HPM_P1;HPM_P2
2023/05/28 00:01:37;;;;;;;;;14.00;13.67;;;;;;;;4730885;30;46210;-91
2023/05/28 00:04:02;;;;;;;;;9.75;9.75;;;;;;;;4725483;30;230634;-92
2023/05/28 00:06:28;;;;;;;;;11.33;11.33;;;;;;;;4745604;29;45514;-91
2023/05/28 00:08:53;;;;;;;;;12.75;12.75;;;;;;;;4724829;30;133614;-91
2023/05/28 00:11:18;;;;;;;;;13.00;13.00;;;;;;;;4727889;30;150455;-92
2023/05/28 00:13:44;;;;;;;;;11.00;11.00;;;;;;;;4715557;30;487851;-91
2023/05/28 00:16:12;;;;;;;;;16.67;15.00;;;;;;;;4729896;30;45536;-92
2023/05/28 00:18:38;;;;;;;;;13.00;13.00;;;;;;;;4742144;29;132903;-91
2023/05/28 00:21:03;;;;;;;;;12.00;12.00;;;;;;;;4732875;30;45259;-91
2023/05/28 00:23:28;;;;;;;;;16.50;16.50;;;;;;;;4726180;30;118400;-92
2023/05/28 00:25:53;;;;;;;;;15.75;15.75;;;;;;;;4743333;29;45247;-91
2023/05/28 00:28:19;;;;;;;;;18.50;16.75;;;;;;;;4742683;29;199879;-92
2023/05/28 00:30:44;;;;;;;;;13.50;13.50;;;;;;;;4731985;29;45502;-91
2023/05/28 00:33:10;;;;;;;;;16.33;16.33;;;;;;;;4684074;30;1136073;-92
2023/05/28 00:35:35;;;;;;;;;18.00;17.75;;;;;;;;4737927;29;134238;-91
2023/05/28 00:38:02;;;;;;;;;18.75;18.75;;;;;;;;4715295;29;752987;-92
2023/05/28 00:40:27;;;;;;;;;15.75;15.75;;;;;;;;4731720;29;45359;-91
2023/05/28 00:42:53;;;;;;;;;15.33;15.33;;;;;;;;4744382;29;46574;-91
2023/05/28 00:45:18;;;;;;;;;18.25;18.25;;;;;;;;4729957;30;45507;-91
2023/05/28 00:47:44;;;;;;;;;17.50;17.50;;;;;;;;4742491;30;44907;-91
2023/05/28 00:50:10;;;;;;;;;19.25;19.25;;;;;;;;4746090;30;28544;-92
2023/05/28 00:52:35;;;;;;;;;19.75;19.00;;;;;;;;4749080;30;31475;-91
2023/05/28 00:55:01;;;;;;;;;23.00;21.75;;;;;;;;4757795;29;35632;-91
2023/05/28 00:57:26;;;;;;;;;18.75;17.75;;;;;;;;4751501;29;44813;-92
2023/05/28 00:59:52;;;;;;;;;19.00;18.50;;;;;;;;4729079;30;46392;-91
2023/05/28 01:02:17;;;;;;;;;17.50;17.00;;;;;;;;4729158;30;45472;-92
2023/05/28 01:04:42;;;;;;;;;17.50;17.50;;;;;;;;4744075;29;45448;-91
2023/05/28 01:07:08;;;;;;;;;19.75;17.50;;;;;;;;4729488;30;45400;-92
2023/05/28 01:09:33;;;;;;;;;20.25;20.25;;;;;;;;4728970;30;59057;-91
2023/05/28 01:11:59;;;;;;;;;17.75;17.75;;;;;;;;4728930;30;45396;-91
2023/05/28 01:14:24;;;;;;;;;18.75;18.00;;;;;;;;4733323;30;45512;-92
2023/05/28 01:16:50;;;;;;;;;16.00;15.25;;;;;;;;4746108;29;45437;-91
2023/05/28 01:19:20;;;;;;;;;15.75;15.25;;;;;;;;4730308;30;45459;-92
2023/05/28 01:21:47;;;;;;;;;16.75;16.75;;;;;;;;4732517;29;56759;-92
2023/05/28 01:24:15;;;;;;;;;16.25;16.25;;;;;;;;4728496;30;45370;-91
2023/05/28 01:26:42;;;;;;;;;16.75;16.75;;;;;;;;4714152;30;494763;-91
2023/05/28 01:29:14;;;;;;;;;17.00;17.00;;;;;;;;4574615;29;1884629;-92
2023/05/28 01:31:40;;;;;;;;;12.00;12.00;;;;;;;;4718495;29;640998;-91
2023/05/28 01:34:05;;;;;;;;;21.33;20.00;;;;;;;;4510151;30;2404813;-91
2023/05/28 01:36:33;;;;;;;;;15.50;15.50;;;;;;;;4740121;30;45337;-91
2023/05/28 01:39:01;;;;;;;;;21.25;21.25;;;;;;;;4762055;30;8835;-91
2023/05/28 01:41:27;;;;;;;;;16.25;16.25;;;;;;;;4751611;30;45452;-91
2023/05/28 01:43:52;;;;;;;;;20.25;19.00;;;;;;;;4731502;30;45454;-92
2023/05/28 01:46:19;;;;;;;;;20.75;20.75;;;;;;;;4733181;30;45444;-91
2023/05/28 01:48:45;;;;;;;;;17.25;17.25;;;;;;;;4744170;29;47997;-91
2023/05/28 01:51:10;;;;;;;;;21.25;18.75;;;;;;;;4734168;30;45611;-91
2023/05/28 01:53:35;;;;;;;;;12.00;12.00;;;;;;;;4749107;29;45557;-91
2023/05/28 01:56:01;;;;;;;;;20.50;20.50;;;;;;;;4745227;29;46505;-91
2023/05/28 01:58:26;;;;;;;;;20.00;20.00;;;;;;;;4730448;30;46137;-91
2023/05/28 02:00:59;;;;;;;;;19.25;19.25;;;;;;;;4745852;29;45493;-91
2023/05/28 02:03:24;;;;;;;;;19.50;18.25;;;;;;;;4732110;29;45255;-91
2023/05/28 02:05:50;;;;;;;;;21.75;21.75;;;;;;;;4733491;30;45471;-92
2023/05/28 02:08:15;;;;;;;;;19.25;18.25;;;;;;;;4746248;29;46034;-92
2023/05/28 02:10:41;;;;;;;;;19.00;19.00;;;;;;;;4733219;30;47061;-91
2023/05/28 02:13:07;;;;;;;;;18.25;18.25;;;;;;;;4747516;29;45906;-91
2023/05/28 02:15:32;;;;;;;;;22.00;22.00;;;;;;;;4478432;30;5752959;-91
2023/05/28 02:17:57;;;;;;;;;19.75;17.75;;;;;;;;4708132;29;828350;-91
2023/05/28 02:20:23;;;;;;;;;19.50;19.50;;;;;;;;4745156;29;45409;-91
2023/05/28 02:22:48;;;;;;;;;24.50;23.50;;;;;;;;4718941;29;872420;-91
2023/05/28 02:25:13;;;;;;;;;21.50;20.50;;;;;;;;4468957;30;4426843;-91
2023/05/28 02:27:38;;;;;;;;;23.00;23.00;;;;;;;;4732218;30;46476;-91
2023/05/28 02:30:05;;;;;;;;;25.75;23.75;;;;;;;;4744375;29;45513;-91
2023/05/28 02:32:30;;;;;;;;;17.75;17.75;;;;;;;;4744720;29;46804;-91
2023/05/28 02:34:55;;;;;;;;;23.50;23.50;;;;;;;;4733595;30;45482;-91
2023/05/28 02:37:23;;;;;;;;;22.50;22.50;;;;;;;;4732074;30;45467;-92
2023/05/28 02:39:49;;;;;;;;;27.50;26.00;;;;;;;;4743713;29;45606;-92
2023/05/28 02:42:14;;;;;;;;;21.00;21.00;;;;;;;;4733564;30;45471;-91
2023/05/28 02:44:39;;;;;;;;;16.75;16.75;;;;;;;;4735247;30;45436;-91
2023/05/28 02:47:05;;;;;;;;;21.50;20.50;;;;;;;;4713359;30;538036;-91
2023/05/28 02:49:30;;;;;;;;;22.50;22.50;;;;;;;;4732369;30;45278;-91
2023/05/28 02:51:55;;;;;;;;;25.50;22.50;;;;;;;;4732378;30;45207;-92
2023/05/28 02:54:20;;;;;;;;;20.75;20.75;;;;;;;;4733239;30;45598;-92
2023/05/28 02:56:46;;;;;;;;;20.00;19.50;;;;;;;;4459326;30;5126736;-92
2023/05/28 02:59:11;;;;;;;;;20.50;19.25;;;;;;;;4731844;30;62329;-92
2023/05/28 03:01:36;;;;;;;;;22.75;22.00;;;;;;;;4734295;30;45310;-91
2023/05/28 03:04:01;;;;;;;;;28.00;24.75;;;;;;;;4746751;29;45414;-91
2023/05/28 03:06:27;;;;;;;;;23.00;23.00;;;;;;;;4733160;30;47906;-92
2023/05/28 03:08:52;;;;;;;;;15.25;15.25;;;;;;;;4734212;30;45401;-91
2023/05/28 03:11:17;;;;;;;;;20.25;20.25;;;;;;;;4732034;30;45457;-91
2023/05/28 03:13:42;;;;;;;;;21.75;20.00;;;;;;;;4744885;29;45425;-91
2023/05/28 03:16:08;;;;;;;;;26.00;24.50;;;;;;;;4731714;30;46154;-91
2023/05/28 03:18:33;;;;;;;;;21.00;21.00;;;;;;;;4746433;29;45630;-91
2023/05/28 03:20:58;;;;;;;;;24.25;23.25;;;;;;;;4732205;30;45718;-91
2023/05/28 03:23:24;;;;;;;;;24.25;24.25;;;;;;;;4743707;29;45680;-91
2023/05/28 03:25:52;;;;;;;;;24.00;24.00;;;;;;;;4729542;30;46483;-91
2023/05/28 03:28:17;;;;;;;;;26.00;25.25;;;;;;;;4730964;30;45571;-91
2023/05/28 03:30:43;;;;;;;;;27.00;25.25;;;;;;;;4742288;29;45451;-91
2023/05/28 03:33:08;;;;;;;;;25.75;25.00;;;;;;;;4737302;30;45488;-91
2023/05/28 03:35:33;;;;;;;;;23.25;23.25;;;;;;;;4730380;30;45346;-91
2023/05/28 03:37:59;;;;;;;;;30.75;26.50;;;;;;;;4730608;30;45438;-91
2023/05/28 03:40:24;;;;;;;;;28.25;27.50;;;;;;;;4731046;30;45468;-91
2023/05/28 03:42:49;;;;;;;;;22.75;22.75;;;;;;;;4746913;29;45583;-91
2023/05/28 03:45:15;;;;;;;;;18.75;18.75;;;;;;;;4736586;30;46241;-91
2023/05/28 03:47:40;;;;;;;;;26.25;26.00;;;;;;;;4728940;30;45452;-91
2023/05/28 03:50:06;;;;;;;;;25.25;23.25;;;;;;;;4734285;30;45368;-91
2023/05/28 03:52:33;;;;;;;;;23.25;22.25;;;;;;;;4732386;30;45256;-91
2023/05/28 03:54:59;;;;;;;;;28.00;26.00;;;;;;;;4732746;30;48270;-91
2023/05/28 03:57:24;;;;;;;;;23.50;23.50;;;;;;;;4733544;30;46334;-92
2023/05/28 03:59:49;;;;;;;;;18.50;17.50;;;;;;;;4731852;30;45736;-91
2023/05/28 04:02:15;;;;;;;;;19.75;19.00;;;;;;;;4753525;29;45517;-92
2023/05/28 04:04:40;;;;;;;;;21.50;19.25;;;;;;;;4732135;30;46130;-91
2023/05/28 04:07:07;;;;;;;;;23.75;19.00;;;;;;;;4744779;29;45479;-91
2023/05/28 04:09:32;;;;;;;;;20.25;20.25;;;;;;;;4727937;30;45437;-91
2023/05/28 04:11:57;;;;;;;;;24.00;24.00;;;;;;;;4735540;30;45580;-91
2023/05/28 04:14:22;;;;;;;;;23.25;23.25;;;;;;;;4730694;29;45466;-91
2023/05/28 04:16:50;;;;;;;;;23.50;23.50;;;;;;;;4731294;30;45607;-91
2023/05/28 04:19:15;;;;;;;;;23.25;22.25;;;;;;;;4730204;30;45310;-91
2023/05/28 04:21:40;;;;;;;;;22.00;21.50;;;;;;;;4729931;30;45532;-91
2023/05/28 04:24:06;;;;;;;;;21.25;21.25;;;;;;;;4731588;30;46515;-91
2023/05/28 04:26:32;;;;;;;;;22.75;22.75;;;;;;;;4731228;30;45235;-91
2023/05/28 04:28:59;;;;;;;;;24.50;24.50;;;;;;;;4735070;30;45572;-91
2023/05/28 04:31:27;;;;;;;;;21.00;20.00;;;;;;;;4744487;29;47135;-91
2023/05/28 04:33:53;;;;;;;;;28.00;26.25;;;;;;;;4732878;30;47006;-91
2023/05/28 04:36:19;;;;;;;;;22.00;21.00;;;;;;;;4730199;29;45441;-91
2023/05/28 04:38:45;;;;;;;;;25.00;25.00;;;;;;;;4741665;29;45264;-91
2023/05/28 04:41:14;;;;;;;;;30.75;28.00;;;;;;;;4731227;30;45503;-91
2023/05/28 04:43:39;;;;;;;;;29.75;27.75;;;;;;;;4733215;30;47885;-91
2023/05/28 04:46:04;;;;;;;;;22.75;22.75;;;;;;;;4734154;30;45432;-91
2023/05/28 04:48:35;;;;;;;;;27.00;25.00;;;;;;;;4729563;30;45469;-91
2023/05/28 04:51:00;;;;;;;;;26.00;26.00;;;;;;;;4738589;29;45518;-91
2023/05/28 04:53:25;;;;;;;;;27.25;27.25;;;;;;;;4731587;30;46168;-92
2023/05/28 04:55:51;;;;;;;;;24.25;24.25;;;;;;;;4729927;30;45481;-91
2023/05/28 04:58:17;;;;;;;;;24.25;24.25;;;;;;;;4728305;30;45779;-91
2023/05/28 05:00:42;;;;;;;;;24.25;22.75;;;;;;;;4728571;30;45424;-91
2023/05/28 05:03:08;;;;;;;;;25.50;24.75;;;;;;;;4745057;29;46690;-92
2023/05/28 05:05:33;;;;;;;;;28.25;26.00;;;;;;;;4746643;29;45513;-91
2023/05/28 05:07:59;;;;;;;;;18.50;18.50;;;;;;;;4732050;30;45409;-91
2023/05/28 05:10:25;;;;;;;;;25.75;23.50;;;;;;;;4747029;29;45722;-91
2023/05/28 05:12:50;;;;;;;;;16.00;16.00;;;;;;;;4733057;30;45670;-91
2023/05/28 05:15:15;;;;;;;;;18.33;18.33;;;;;;;;4732897;29;45478;-92
2023/05/28 05:17:41;;;;;;;;;22.67;22.67;;;;;;;;4749173;29;45445;-91
2023/05/28 05:20:07;;;;;;;;;16.67;16.67;;;;;;;;4745804;29;45611;-91
2023/05/28 05:22:32;;;;;;;;;22.25;21.25;;;;;;;;4731542;30;46011;-91
2023/05/28 05:24:57;;;;;;;;;22.25;22.25;;;;;;;;4732329;30;45354;-91
2023/05/28 05:27:23;;;;;;;;;26.00;26.00;;;;;;;;4733191;30;45411;-92
2023/05/28 05:29:48;;;;;;;;;24.75;21.25;;;;;;;;4736335;30;45345;-91
2023/05/28 05:32:13;;;;;;;;;21.67;20.00;;;;;;;;4732331;30;45518;-91
2023/05/28 05:34:39;;;;;;;;;26.00;24.67;;;;;;;;4742626;30;45403;-92
2023/05/28 05:37:04;;;;;;;;;24.00;23.25;;;;;;;;4753004;29;45358;-92
2023/05/28 05:39:29;;;;;;;;;17.67;17.67;;;;;;;;4745680;30;44972;-91
2023/05/28 05:41:55;;;;;;;;;20.00;19.75;;;;;;;;4755797;29;45359;-91
2023/05/28 05:44:20;;;;;;;;;24.00;24.00;;;;;;;;4731130;30;45432;-91
2023/05/28 05:46:45;;;;;;;;;27.67;22.33;;;;;;;;4739806;30;45423;-91
2023/05/28 05:49:10;;;;;;;;;22.33;22.33;;;;;;;;4749186;29;45405;-91
2023/05/28 05:51:36;;;;;;;;;23.67;22.67;;;;;;;;4741515;30;45372;-92
2023/05/28 05:54:01;;;;;;;;;22.33;20.33;;;;;;;;4749069;30;44575;-91
2023/05/28 05:56:27;;;;;;;;;25.67;25.67;;;;;;;;4743646;30;45574;-92
2023/05/28 05:58:52;;;;;;;;;23.33;22.33;;;;;;;;4735482;29;45559;-91
2023/05/28 06:01:17;;;;;;;;;21.67;21.67;;;;;;;;4747165;29;46932;-91
2023/05/28 06:03:43;;;;;;;;;22.33;19.33;;;;;;;;4732200;30;45554;-91
2023/05/28 06:06:09;;;;;;;;;24.33;21.67;;;;;;;;4746624;29;45602;-92
2023/05/28 06:08:35;;;;;;;;;22.33;20.00;;;;;;;;4733896;29;45420;-91
2023/05/28 06:11:00;;;;;;;;;24.67;22.00;;;;;;;;4735575;30;46159;-91
2023/05/28 06:13:26;;;;;;;;;19.67;19.67;;;;;;;;4746938;29;45505;-91
2023/05/28 06:15:51;;;;;;;;;17.00;17.00;;;;;;;;4741946;30;41146;-92
2023/05/28 06:18:16;;;;;;;;;21.67;21.67;;;;;;;;4737954;30;45555;-92
2023/05/28 06:20:42;;;;;;;;;21.67;20.00;;;;;;;;4733258;30;45651;-91
2023/05/28 06:23:07;;;;;;;;;17.00;17.00;;;;;;;;4731112;30;45621;-92
2023/05/28 06:25:35;;;;;;;;;14.67;14.67;;;;;;;;4751634;29;45371;-91
2023/05/28 06:28:00;;;;;;;;;19.00;19.00;;;;;;;;4739555;29;45627;-91
2023/05/28 06:30:28;;;;;;;;;23.67;22.33;;;;;;;;4737002;30;46957;-92
2023/05/28 06:32:53;;;;;;;;;19.67;19.67;;;;;;;;4736682;29;45575;-91
2023/05/28 06:35:18;;;;;;;;;15.33;15.33;;;;;;;;4739227;30;45494;-91
2023/05/28 06:37:44;;;;;;;;;23.33;21.67;;;;;;;;4739956;30;45505;-91
2023/05/28 06:40:10;;;;;;;;;14.00;13.67;;;;;;;;4738108;30;46917;-92
2023/05/28 06:42:35;;;;;;;;;15.00;15.00;;;;;;;;4741506;30;45473;-91
2023/05/28 06:45:01;;;;;;;;;10.33;10.33;;;;;;;;4743465;29;45454;-91
2023/05/28 06:47:27;;;;;;;;;15.33;15.33;;;;;;;;4744172;30;45294;-91
2023/05/28 06:49:53;;;;;;;;;14.33;13.67;;;;;;;;4761461;29;46966;-92
2023/05/28 06:52:19;;;;;;;;;21.25;21.25;;;;;;;;4747626;30;45228;-92
2023/05/28 06:54:46;;;;;;;;;13.33;13.00;;;;;;;;4746690;30;45517;-91
2023/05/28 06:57:12;;;;;;;;;16.33;14.67;;;;;;;;4743452;30;44768;-92
2023/05/28 06:59:37;;;;;;;;;13.67;13.67;;;;;;;;4743660;30;45242;-91
2023/05/28 07:02:02;;;;;;;;;18.00;17.67;;;;;;;;4750595;30;45520;-92
2023/05/28 07:04:28;;;;;;;;;15.33;13.67;;;;;;;;4674740;30;1362893;-91
2023/05/28 07:06:53;;;;;;;;;14.67;14.67;;;;;;;;4749576;29;45420;-92
2023/05/28 07:09:18;;;;;;;;;14.00;14.00;;;;;;;;4739638;29;45425;-92
2023/05/28 07:11:44;;;;;;;;;17.33;17.33;;;;;;;;4737805;30;45492;-92
2023/05/28 07:14:09;;;;;;;;;14.00;14.00;;;;;;;;4746063;30;45444;-92
2023/05/28 07:16:34;;;;;;;;;16.67;16.67;;;;;;;;4733845;29;45446;-92
2023/05/28 07:19:00;;;;;;;;;15.67;15.33;;;;;;;;4747647;30;45470;-92
2023/05/28 07:21:25;;;;;;;;;10.33;10.33;;;;;;;;4742633;30;165542;-92
2023/05/28 07:38:25;;;;;;;;;11.00;10.00;;;;;;;;4669371;30;46137;-96
2023/05/28 07:46:02;;;;;;;;;13.67;12.67;;;;;;;;5033668;24;45693;-96
2023/05/28 07:48:28;;;;;;;;;10.33;9.67;;;;;;;;4718871;30;45429;-96
2023/05/28 07:50:53;;;;;;;;;10.33;10.33;;;;;;;;4716567;30;45214;-96
2023/05/28 07:53:18;;;;;;;;;12.67;12.67;;;;;;;;4702546;30;45669;-96
2023/05/28 07:58:17;;;;;;;;;10.67;10.67;;;;;;;;4721638;30;45974;-96
2023/05/28 08:49:19;;;;;;;;;6.00;6.00;;;;;;;;5717010;24;45734;31
2023/05/28 08:51:48;;;;;;;;;5.00;5.00;;;;;;;;4705607;30;44372;-90
2023/05/28 08:54:14;;;;;;;;;4.67;4.67;;;;;;;;4541202;30;2274291;-88
2023/05/28 08:56:40;;;;;;;;;6.00;6.00;;;;;;;;4001108;30;5309509;-88
2023/05/28 08:59:05;;;;;;;;;4.33;4.33;;;;;;;;4677934;30;781896;-88
2023/05/28 09:01:31;;;;;;;;;6.00;6.00;;;;;;;;4710014;30;45312;-88
2023/05/28 09:03:56;;;;;;;;;5.33;5.33;;;;;;;;4693611;30;46650;-88
2023/05/28 09:06:24;;;;;;;;;4.00;4.00;;;;;;;;4707064;30;44685;-88
2023/05/28 09:08:52;;;;;;;;;9.00;9.00;;;;;;;;4706346;30;44818;-88
2023/05/28 09:11:18;;;;;;;;;6.00;6.00;;;;;;;;4708265;30;45385;-88
2023/05/28 09:13:47;;;;;;;;;7.50;7.50;;;;;;;;4712901;30;45404;-88
2023/05/28 09:16:22;;;;;;;;;5.67;5.00;;;;;;;;4712653;30;42958;-88
2023/05/28 09:18:52;;;;;;;;;5.00;5.00;;;;;;;;4703767;30;44689;-88
2023/05/28 09:21:19;;;;;;;;;6.67;5.67;;;;;;;;4698689;30;45671;-88
2023/05/28 09:23:46;;;;;;;;;6.00;6.00;;;;;;;;4695784;30;45485;-88
2023/05/28 09:26:11;;;;;;;;;4.00;4.00;;;;;;;;4704336;30;45422;-88
2023/05/28 09:28:40;;;;;;;;;4.67;4.67;;;;;;;;4703585;30;45566;-88
2023/05/28 09:31:05;;;;;;;;;5.00;5.00;;;;;;;;4703799;30;45513;-88
2023/05/28 09:33:31;;;;;;;;;5.33;5.33;;;;;;;;4702009;30;45921;-88
2023/05/28 09:35:58;;;;;;;;;6.00;6.00;;;;;;;;4694364;30;45256;-88
2023/05/28 09:38:25;;;;;;;;;7.67;7.67;;;;;;;;4697958;30;45544;-88
2023/05/28 09:40:50;;;;;;;;;4.33;4.00;;;;;;;;4696467;30;45311;-88
2023/05/28 09:43:16;;;;;;;;;4.67;4.33;;;;;;;;4703287;30;46222;-88
2023/05/28 09:45:41;;;;;;;;;5.00;5.00;;;;;;;;4699290;30;45453;-88
2023/05/28 09:48:06;;;;;;;;;5.33;5.33;;;;;;;;4703403;30;45517;-87
2023/05/28 09:50:31;;;;;;;;;4.00;4.00;;;;;;;;4705529;30;45403;-88
2023/05/28 09:52:57;;;;;;;;;6.33;5.33;;;;;;;;4708633;30;46560;-88
2023/05/28 09:55:26;;;;;;;;;5.00;5.00;;;;;;;;4711600;30;45403;-88
2023/05/28 09:57:57;;;;;;;;;5.33;5.33;;;;;;;;4706890;30;45228;-88
2023/05/28 10:00:29;;;;;;;;;4.67;4.67;;;;;;;;4695133;30;45610;-88
2023/05/28 10:03:05;;;;;;;;;6.67;6.67;;;;;;;;4715613;30;45268;-88
2023/05/28 10:05:32;;;;;;;;;4.67;4.67;;;;;;;;4708358;30;45538;-88
2023/05/28 10:07:59;;;;;;;;;5.33;5.33;;;;;;;;4706983;30;45237;-88
2023/05/28 10:10:26;;;;;;;;;5.00;5.00;;;;;;;;4708438;30;45289;-88
2023/05/28 10:12:53;;;;;;;;;5.33;5.33;;;;;;;;4713249;30;45375;-88
2023/05/28 10:15:19;;;;;;;;;4.33;4.33;;;;;;;;4710779;30;45407;-88
2023/05/28 10:17:44;;;;;;;;;6.00;6.00;;;;;;;;4713018;30;45295;-88
2023/05/28 10:20:10;;;;;;;;;6.00;6.00;;;;;;;;4712040;30;45459;-88
2023/05/28 10:22:37;;;;;;;;;4.00;4.00;;;;;;;;4695570;30;60258;-88
2023/05/28 10:25:02;;;;;;;;;5.67;5.67;;;;;;;;4715193;30;44905;-88
2023/05/28 10:27:31;;;;;;;;;3.00;3.00;;;;;;;;4714396;30;45567;-88
2023/05/28 10:29:56;;;;;;;;;5.00;4.33;;;;;;;;4709562;30;45356;-88
2023/05/28 10:32:21;;;;;;;;;6.33;4.67;;;;;;;;4711732;30;46349;-88
2023/05/28 10:34:47;;;;;;;;;6.33;6.33;;;;;;;;4714512;30;45336;-88
2023/05/28 10:37:13;;;;;;;;;5.00;5.00;;;;;;;;4719493;30;44758;-88
2023/05/28 10:39:48;;;;;;;;;7.33;6.00;;;;;;;;4717561;30;44704;-88
2023/05/28 10:42:14;;;;;;;;;5.33;5.33;;;;;;;;4716609;30;45527;-88
2023/05/28 10:44:48;;;;;;;;;6.00;6.00;;;;;;;;4717715;30;44704;-88
2023/05/28 10:47:13;;;;;;;;;5.00;5.00;;;;;;;;4720013;30;44630;-88
2023/05/28 10:49:57;;;;;;;;;5.67;5.67;;;;;;;;4714001;30;44693;-88
2023/05/28 10:52:22;;;;;;;;;6.00;6.00;;;;;;;;4714088;30;45243;-88
2023/05/28 10:54:51;;;;;;;;;6.00;6.00;;;;;;;;4715851;30;44752;-88
2023/05/28 10:57:17;;;;;;;;;5.33;5.33;;;;;;;;4697124;30;45462;-88
2023/05/28 10:59:47;;;;;;;;;5.33;5.33;;;;;;;;4695030;30;47294;-88
2023/05/28 11:02:12;;;;;;;;;9.33;7.00;;;;;;;;4711156;30;45241;-88
2023/05/28 11:04:39;;;;;;;;;6.67;6.67;;;;;;;;4706145;30;45234;-88
2023/05/28 11:07:05;;;;;;;;;5.00;5.00;;;;;;;;4706317;30;45438;-88
2023/05/28 11:09:30;;;;;;;;;5.00;5.00;;;;;;;;4704627;30;45336;-88
2023/05/28 11:11:59;;;;;;;;;7.33;6.33;;;;;;;;4705534;30;46358;-88
2023/05/28 11:14:29;;;;;;;;;4.67;4.67;;;;;;;;4708918;30;45691;-88
2023/05/28 11:16:54;;;;;;;;;5.67;5.67;;;;;;;;4717723;30;44716;-88
2023/05/28 11:19:19;;;;;;;;;8.25;8.25;;;;;;;;3466247;30;20352915;-88
2023/05/28 11:21:55;;;;;;;;;7.00;6.00;;;;;;;;4700342;30;42248;-88
2023/05/28 11:24:20;;;;;;;;;7.33;7.33;;;;;;;;4717894;30;28460;-88
2023/05/28 11:26:45;;;;;;;;;4.67;4.67;;;;;;;;4719828;30;38950;-88
2023/05/28 11:29:12;;;;;;;;;5.67;5.67;;;;;;;;4720260;30;28414;-87
2023/05/28 11:31:40;;;;;;;;;10.00;8.00;;;;;;;;4719489;30;43602;-88
2023/05/28 11:34:06;;;;;;;;;5.67;5.67;;;;;;;;4718594;30;45181;-88
2023/05/28 11:36:37;;;;;;;;;4.67;4.67;;;;;;;;4720242;30;28421;-88
2023/05/28 11:39:03;;;;;;;;;5.33;5.33;;;;;;;;4719766;30;28495;-88
2023/05/28 11:41:28;;;;;;;;;4.33;4.33;;;;;;;;4719957;30;29325;-88
2023/05/28 11:43:54;;;;;;;;;5.00;5.00;;;;;;;;4719197;30;44625;-88
2023/05/28 11:46:21;;;;;;;;;4.67;4.67;;;;;;;;4720009;30;28322;-88
2023/05/28 11:48:46;;;;;;;;;4.00;4.00;;;;;;;;4720100;30;28283;-88
2023/05/28 11:51:12;;;;;;;;;4.00;4.00;;;;;;;;4703969;30;29761;-88
2023/05/28 11:53:41;;;;;;;;;4.33;4.33;;;;;;;;4696100;30;28524;-88
2023/05/28 11:56:08;;;;;;;;;4.00;4.00;;;;;;;;4666668;30;760989;-88
2023/05/28 11:58:34;;;;;;;;;3.67;3.67;;;;;;;;4693951;30;45617;-87
2023/05/28 12:01:00;;;;;;;;;4.67;4.67;;;;;;;;4680447;30;46990;-88
2023/05/28 12:03:26;;;;;;;;;6.00;6.00;;;;;;;;4681863;30;44782;-88
2023/05/28 12:05:51;;;;;;;;;4.67;4.67;;;;;;;;4683431;30;45399;-88
2023/05/28 12:08:18;;;;;;;;;5.33;5.33;;;;;;;;4699691;30;44928;-88
2023/05/28 12:10:43;;;;;;;;;4.67;4.67;;;;;;;;4701785;30;28593;-88
2023/05/28 12:13:11;;;;;;;;;7.00;7.00;;;;;;;;4697756;30;45409;-88
2023/05/28 12:15:36;;;;;;;;;5.00;5.00;;;;;;;;4681131;30;475845;-88
2023/05/28 12:18:42;;;;;;;;;4.00;4.00;;;;;;;;2633524;30;24407612;-89
2023/05/28 12:21:11;;;;;;;;;3.75;3.75;;;;;;;;2688268;30;16681128;-89
2023/05/28 12:23:37;;;;;;;;;4.00;4.00;;;;;;;;4680753;30;45410;-88
2023/05/28 12:26:02;;;;;;;;;3.67;3.67;;;;;;;;4668975;30;45713;-88
2023/05/28 12:28:27;;;;;;;;;4.67;4.67;;;;;;;;4680198;30;46240;-88
2023/05/28 12:30:54;;;;;;;;;6.00;4.50;;;;;;;;4646311;30;1015087;-88
2023/05/28 12:33:20;;;;;;;;;2.67;2.67;;;;;;;;4564304;30;2494286;-88
2023/05/28 12:35:46;;;;;;;;;4.33;4.33;;;;;;;;4685301;30;45257;-88
2023/05/28 12:38:12;;;;;;;;;5.00;5.00;;;;;;;;4688232;30;46254;-88
2023/05/28 12:40:37;;;;;;;;;4.00;4.00;;;;;;;;4691882;30;45234;-88
2023/05/28 12:43:03;;;;;;;;;4.33;4.33;;;;;;;;4685210;30;45234;-88
2023/05/28 12:45:28;;;;;;;;;6.67;6.67;;;;;;;;4683122;30;44971;-88
2023/05/28 12:47:54;;;;;;;;;5.00;5.00;;;;;;;;3329790;30;10620767;-88
2023/05/28 12:50:20;;;;;;;;;7.67;7.67;;;;;;;;3276084;30;18219544;-88
2023/05/28 12:52:45;;;;;;;;;7.00;6.00;;;;;;;;4078516;30;8236730;-88
2023/05/28 12:56:13;;;;;;;;;;;;;;;;;;1823983;30;35643662;-88
2023/05/28 12:59:27;;;;;;;;;3.50;3.50;;;;;;;;1484644;30;49424602;-88
2023/05/28 13:01:53;;;;;;;;;5.00;5.00;;;;;;;;1400174;30;72000427;-88
2023/05/28 13:04:18;;;;;;;;;5.00;5.00;;;;;;;;4667077;30;442102;-89
2023/05/28 13:06:44;;;;;;;;;3.67;3.67;;;;;;;;4683921;30;45500;-90
2023/05/28 13:09:12;;;;;;;;;6.00;6.00;;;;;;;;4547014;30;3752880;-90
2023/05/28 13:11:37;;;;;;;;;5.00;5.00;;;;;;;;4287381;30;8007716;-90
2023/05/28 13:14:02;;;;;;;;;5.33;5.33;;;;;;;;4572645;30;1697712;-90
2023/05/28 13:16:27;;;;;;;;;;;;;;;;;;2895607;30;39677795;-90
2023/05/28 13:18:53;;;;;;;;;5.80;5.80;;;;;;;;4131243;30;5560093;-92
2023/05/28 13:21:18;;;;;;;;;5.00;5.00;;;;;;;;4645923;30;858874;-92
2023/05/28 13:23:43;;;;;;;;;4.33;4.33;;;;;;;;4673752;30;45845;-94
2023/05/28 13:26:08;;;;;;;;;6.00;6.00;;;;;;;;4386374;30;8931177;-94
2023/05/28 13:28:40;;;;;;;;;;;;;;;;;;1587822;30;70182873;-93
2023/05/28 13:34:45;;;;;;;;;7.80;6.40;;;;;;;;2180186;30;20542394;-93
2023/05/28 13:40:32;;;;;;;;;5.00;5.00;;;;;;;;3401153;30;11171486;-93
2023/05/28 13:43:17;;;;;;;;;4.67;4.67;;;;;;;;4654428;30;45769;-94
2023/05/28 13:46:16;;;;;;;;;4.75;4.75;;;;;;;;4635400;30;908861;-95
2023/05/28 13:48:50;;;;;;;;;;;;;;;;;;1259775;30;82327339;-95
2023/05/28 13:51:18;;;;;;;;;5.50;5.50;;;;;;;;4462297;30;6987853;-93
2023/05/28 13:53:45;;;;;;;;;4.00;4.00;;;;;;;;4700981;30;46400;-94
2023/05/28 13:56:11;;;;;;;;;5.33;4.67;;;;;;;;4706601;30;45415;-94
2023/05/28 13:58:36;;;;;;;;;6.33;6.33;;;;;;;;4698183;30;44713;-95
2023/05/28 14:01:01;;;;;;;;;5.25;5.25;;;;;;;;2361759;30;16050683;-91
2023/05/28 14:03:27;;;;;;;;;8.00;8.00;;;;;;;;3054157;30;13944819;-90
2023/05/28 14:05:52;;;;;;;;;5.00;5.00;;;;;;;;3972699;30;12548522;-89
2023/05/28 14:08:18;;;;;;;;;6.50;6.25;;;;;;;;3938452;30;8630271;-90
2023/05/28 14:10:43;;;;;;;;;4.00;4.00;;;;;;;;2644776;30;14340604;-90
2023/05/28 14:13:08;;;;;;;;;7.50;7.25;;;;;;;;4306269;30;8902364;-90
2023/05/28 14:16:04;;;;;;;;;5.00;5.00;;;;;;;;2140532;30;36314989;-90
2023/05/28 14:18:29;;;;;;;;;5.00;5.00;;;;;;;;2746566;30;52490217;-90
2023/05/28 14:20:55;;;;;;;;;5.00;4.00;;;;;;;;3745721;30;18829584;-89
2023/05/28 14:23:20;;;;;;;;;6.00;6.00;;;;;;;;4621358;30;2180748;-89
2023/05/28 14:25:45;;;;;;;;;4.33;4.33;;;;;;;;4460648;30;7515918;-90
2023/05/28 14:28:11;;;;;;;;;4.33;4.33;;;;;;;;4255638;30;6322175;-90
2023/05/28 14:30:36;;;;;;;;;4.00;4.00;;;;;;;;4643512;30;1565245;-89
2023/05/28 14:33:19;;;;;;;;;3.00;3.00;;;;;;;;3251023;30;24232066;-89
2023/05/28 14:35:45;;;;;;;;;7.00;5.00;;;;;;;;3091629;30;15242828;-93
2023/05/28 14:38:10;;;;;;;;;5.00;5.00;;;;;;;;903733;30;93917148;-90
2023/05/28 14:49:23;;;;;;;;;5.00;5.00;;;;;;;;5389737;24;46041;-92
2023/05/28 15:03:04;;;;;;;;;5.67;5.67;;;;;;;;4323436;24;8319467;-91
2023/05/28 15:05:30;;;;;;;;;5.00;5.00;;;;;;;;4574420;30;2577266;-92
2023/05/28 15:07:55;;;;;;;;;5.00;5.00;;;;;;;;4727328;30;45334;-94
2023/05/28 15:10:20;;;;;;;;;5.00;5.00;;;;;;;;4286530;30;5357714;-93
2023/05/28 15:12:45;;;;;;;;;7.67;6.67;;;;;;;;4703918;30;45476;-89
2023/05/28 15:15:11;;;;;;;;;5.00;5.00;;;;;;;;4719471;30;45277;-90
2023/05/28 15:17:36;;;;;;;;;5.67;5.67;;;;;;;;4700835;30;45411;-91
2023/05/28 15:20:02;;;;;;;;;5.00;5.00;;;;;;;;4704582;30;45236;-92
2023/05/28 15:25:51;;;;;;;;;4.33;4.33;;;;;;;;4240151;30;4689671;-95
2023/05/28 15:30:55;;;;;;;;;5.50;5.50;;;;;;;;4217371;24;15123541;-96
2023/05/28 15:37:01;;;;;;;;;;;;;;;;;;;;;
2023/05/28 15:44:46;;;;;;;;;6.00;6.00;;;;;;;;4390969;24;5781985;-93
2023/05/28 15:50:14;;;;;;;;;5.00;5.00;;;;;;;;4675206;30;1462152;-91
2023/05/28 16:00:52;;;;;;;;;8.00;8.00;;;;;;;;3797643;24;14991720;-90
2023/05/28 16:03:18;;;;;;;;;5.00;5.00;;;;;;;;4300481;30;6164070;-90
2023/05/28 16:05:44;;;;;;;;;5.33;5.33;;;;;;;;4180468;30;7872735;-90
2023/05/28 16:08:10;;;;;;;;;6.00;6.00;;;;;;;;4367061;30;8962263;-91
2023/05/28 16:10:36;;;;;;;;;6.00;6.00;;;;;;;;4685658;30;210794;-89
2023/05/28 16:13:04;;;;;;;;;7.00;6.67;;;;;;;;4482115;30;3544766;-89
2023/05/28 16:15:30;;;;;;;;;7.50;7.00;;;;;;;;4029747;30;7482627;-90
2023/05/28 16:17:55;;;;;;;;;8.20;7.20;;;;;;;;2464096;30;25375276;-89
2023/05/28 16:20:21;;;;;;;;;3.67;3.67;;;;;;;;4355389;30;8118410;-90
2023/05/28 16:22:48;;;;;;;;;7.33;7.00;;;;;;;;4321643;30;3958652;-94
2023/05/28 16:25:13;;;;;;;;;7.33;7.33;;;;;;;;4451168;30;7087451;-91
2023/05/28 16:27:38;;;;;;;;;6.67;6.67;;;;;;;;4708409;30;45193;-92